Time;durP1;ratioP1;P1;durP2;ratioP2;P2;SDS_P1;SDS_P2;PMS_P1;PMS_P2;Temp;Humidity;BMP_temperature;BMP_pressure;BME280_temperature;BME280_humidity;BME280_pressure;Samples;Min_cycle;Max_cycle;Signal;HPM_P1;HPM_P2
2022/12/09 00:00:42;;;;;;;8.18;4.00;;;27.40;61.30;;;;;;5026399;28;20025;-68
2022/12/09 00:03:09;;;;;;;16.63;4.68;;;27.40;61.30;;;;;;5025324;28;20034;-69
2022/12/09 00:05:40;;;;;;;13.32;4.53;;;27.40;61.20;;;;;;5028012;28;20022;-68
2022/12/09 00:08:06;;;;;;;14.57;6.22;;;27.30;61.20;;;;;;5022178;28;20026;-67
2022/12/09 00:10:33;;;;;;;17.92;6.78;;;27.30;61.20;;;;;;5029186;28;20403;-67
2022/12/09 00:12:59;;;;;;;10.68;4.00;;;27.30;61.70;;;;;;5024620;28;20026;-68
2022/12/09 00:15:26;;;;;;;11.70;5.22;;;27.30;61.40;;;;;;5027618;28;20022;-68
2022/12/09 00:17:52;;;;;;;10.73;4.82;;;27.20;61.40;;;;;;5025994;28;20021;-67
2022/12/09 00:20:19;;;;;;;17.95;5.72;;;27.20;61.50;;;;;;5027523;28;20026;-68
2022/12/09 00:22:45;;;;;;;14.52;4.20;;;27.20;61.60;;;;;;5020553;28;20193;-68
2022/12/09 00:25:12;;;;;;;12.50;5.75;;;27.20;61.80;;;;;;5027105;28;20022;-68
2022/12/09 00:27:38;;;;;;;10.25;4.20;;;27.10;61.80;;;;;;5029375;28;20028;-67
2022/12/09 00:30:05;;;;;;;12.13;4.38;;;27.10;62.00;;;;;;5024156;28;20597;-69
2022/12/09 00:32:32;;;;;;;15.07;5.40;;;27.10;62.10;;;;;;5028256;28;20117;-67
2022/12/09 00:34:58;;;;;;;11.88;3.53;;;27.10;62.90;;;;;;5024534;28;20033;-67
2022/12/09 00:37:25;;;;;;;14.32;4.63;;;27.00;62.30;;;;;;5027104;28;20017;-67
2022/12/09 00:39:51;;;;;;;15.40;3.90;;;27.00;62.50;;;;;;5022356;28;20521;-67
2022/12/09 00:42:18;;;;;;;15.57;4.93;;;27.00;63.30;;;;;;5024028;28;20044;-67
2022/12/09 00:44:44;;;;;;;15.65;5.30;;;27.00;62.80;;;;;;5026606;28;20013;-67
2022/12/09 00:47:11;;;;;;;12.02;3.90;;;27.00;63.10;;;;;;5028807;28;20026;-67
2022/12/09 00:49:37;;;;;;;13.05;4.78;;;26.90;63.40;;;;;;5024843;28;20022;-67
2022/12/09 00:52:04;;;;;;;10.95;3.28;;;26.90;63.80;;;;;;5025028;28;20018;-67
2022/12/09 00:54:31;;;;;;;13.48;4.90;;;26.90;64.10;;;;;;5028528;28;20014;-67
2022/12/09 00:56:58;;;;;;;10.80;4.22;;;26.90;64.40;;;;;;5024333;28;20538;-68
2022/12/09 00:59:24;;;;;;;10.93;4.68;;;26.80;64.50;;;;;;5027371;28;20447;-67
2022/12/09 01:01:51;;;;;;;16.42;5.57;;;26.80;64.60;;;;;;5025770;28;20056;-70
2022/12/09 01:04:17;;;;;;;13.30;4.38;;;26.80;64.90;;;;;;5025673;28;20018;-72
2022/12/09 01:06:44;;;;;;;13.55;3.95;;;26.80;65.10;;;;;;5027733;28;20063;-68
2022/12/09 01:09:12;;;;;;;11.65;4.20;;;26.80;65.40;;;;;;5028185;28;20024;-70
2022/12/09 01:11:38;;;;;;;9.45;3.97;;;26.80;65.60;;;;;;5026170;28;20025;-72
2022/12/09 01:14:05;;;;;;;20.83;5.63;;;26.70;65.60;;;;;;5021649;28;20060;-72
2022/12/09 01:16:33;;;;;;;11.50;4.75;;;26.70;66.10;;;;;;5027474;28;20025;-70
2022/12/09 01:19:05;;;;;;;11.55;4.40;;;26.70;66.40;;;;;;5020896;28;20084;-71
2022/12/09 01:21:34;;;;;;;11.75;3.67;;;26.70;66.70;;;;;;5026157;28;20083;-72
2022/12/09 01:24:05;;;;;;;9.13;3.83;;;26.70;66.90;;;;;;5021561;28;20018;-72
2022/12/09 01:26:32;;;;;;;9.68;3.40;;;26.70;67.10;;;;;;5025769;28;20065;-68
2022/12/09 01:28:58;;;;;;;10.55;3.80;;;26.70;67.30;;;;;;5024877;28;20065;-73
2022/12/09 01:31:25;;;;;;;7.82;2.60;;;26.70;67.40;;;;;;5020055;28;20057;-70
2022/12/09 01:33:53;;;;;;;7.68;3.20;;;26.70;67.60;;;;;;5025157;28;20061;-73
2022/12/09 01:36:23;;;;;;;10.82;4.30;;;26.70;67.70;;;;;;5021018;28;20018;-71
2022/12/09 01:38:50;;;;;;;20.02;5.50;;;26.70;67.90;;;;;;5027095;28;20087;-73
2022/12/09 01:41:18;;;;;;;13.95;3.92;;;26.70;68.10;;;;;;5028004;28;20035;-67
2022/12/09 01:43:45;;;;;;;17.05;4.35;;;26.70;68.30;;;;;;5021446;28;20036;-73
2022/12/09 01:46:11;;;;;;;12.93;3.90;;;26.70;68.40;;;;;;5025695;28;20491;-70
2022/12/09 01:48:43;;;;;;;9.98;3.22;;;26.70;68.30;;;;;;5025713;28;20064;-70
2022/12/09 01:51:13;;;;;;;12.90;3.38;;;26.70;68.10;;;;;;5025965;28;20044;-69
2022/12/09 01:53:44;;;;;;;12.27;5.13;;;26.60;67.90;;;;;;5023305;28;20506;-70
2022/12/09 01:56:28;;;;;;;7.82;3.33;;;26.60;67.90;;;;;;5023191;28;20061;-72
2022/12/09 01:59:00;;;;;;;13.32;3.80;;;26.60;67.90;;;;;;5024311;28;20053;-67
2022/12/09 02:01:27;;;;;;;11.50;4.05;;;26.50;67.90;;;;;;5023554;28;20037;-71
2022/12/09 02:03:54;;;;;;;15.85;5.60;;;26.50;68.00;;;;;;5026207;28;20026;-68
2022/12/09 02:06:21;;;;;;;13.32;3.83;;;26.50;68.30;;;;;;5022531;28;20071;-69
2022/12/09 02:08:49;;;;;;;15.38;5.25;;;26.50;68.50;;;;;;5024003;28;20029;-71
2022/12/09 02:11:25;;;;;;;15.00;4.05;;;26.50;68.80;;;;;;5026365;28;20057;-68
2022/12/09 02:14:20;;;;;;;14.48;5.38;;;26.50;68.90;;;;;;5024675;28;20588;-68
2022/12/09 02:17:24;;;;;;;10.77;4.03;;;26.50;69.00;;;;;;5027066;28;20145;-70
2022/12/09 02:20:18;;;;;;;18.67;5.78;;;26.50;69.00;;;;;;5025256;28;20052;-67
2022/12/09 02:22:55;;;;;;;15.40;5.22;;;26.50;69.00;;;;;;5018237;28;20038;-71
2022/12/09 02:25:27;;;;;;;15.82;5.93;;;26.50;68.90;;;;;;5027887;28;20053;-68
2022/12/09 02:28:24;;;;;;;15.73;4.90;;;26.40;68.90;;;;;;5024138;28;20025;-66
2022/12/09 02:31:15;;;;;;;13.30;4.45;;;26.40;68.90;;;;;;5041499;28;20029;-71
2022/12/09 02:34:03;;;;;;;13.32;4.28;;;26.40;68.90;;;;;;5023638;28;20041;-69
2022/12/09 02:36:35;;;;;;;12.73;5.03;;;26.40;68.80;;;;;;5023497;28;20061;-69
2022/12/09 02:39:02;;;;;;;13.95;4.75;;;26.40;68.70;;;;;;5019424;28;20030;-69
2022/12/09 02:41:31;;;;;;;11.60;4.32;;;26.40;68.60;;;;;;5024367;28;20034;-67
2022/12/09 02:44:08;;;;;;;18.38;5.70;;;26.40;68.40;;;;;;5024258;28;20026;-71
2022/12/09 02:46:35;;;;;;;12.90;4.18;;;26.40;68.20;;;;;;5030504;28;20083;-68
2022/12/09 02:49:02;;;;;;;17.40;4.95;;;26.30;68.00;;;;;;5023344;28;20018;-70
2022/12/09 02:51:32;;;;;;;15.60;5.00;;;26.30;67.90;;;;;;5027218;28;20022;-71
2022/12/09 02:54:19;;;;;;;11.15;3.63;;;26.30;67.70;;;;;;5029731;28;20396;-68
2022/12/09 02:57:00;;;;;;;10.82;4.20;;;26.30;67.70;;;;;;5029758;28;20487;-70
2022/12/09 02:59:27;;;;;;;24.08;6.78;;;26.30;67.60;;;;;;5028647;28;20057;-70
2022/12/09 03:02:13;;;;;;;12.32;3.90;;;26.30;67.50;;;;;;5027408;28;20362;-68
2022/12/09 03:04:46;;;;;;;17.70;5.55;;;26.30;67.40;;;;;;5026855;28;20036;-70
2022/12/09 03:07:52;;;;;;;11.48;4.47;;;26.30;67.30;;;;;;5029025;28;20032;-67
2022/12/09 03:10:27;;;;;;;11.30;4.55;;;26.20;67.80;;;;;;5012134;28;21164;-68
2022/12/09 03:13:32;;;;;;;9.35;4.25;;;26.20;67.10;;;;;;5023986;28;20018;-68
2022/12/09 03:16:24;;;;;;;12.10;4.10;;;26.20;67.10;;;;;;5006380;28;20038;-66
2022/12/09 03:18:59;;;;;;;15.60;4.40;;;26.20;67.00;;;;;;5027253;28;20484;-68
2022/12/09 03:21:28;;;;;;;10.68;4.00;;;26.10;66.90;;;;;;5031963;28;20021;-68
2022/12/09 03:23:57;;;;;;;8.30;3.17;;;26.10;66.80;;;;;;5025205;28;20024;-68
2022/12/09 03:26:27;;;;;;;13.15;3.92;;;26.10;66.80;;;;;;5028217;28;20543;-71
2022/12/09 03:28:57;;;;;;;18.00;5.28;;;26.10;66.90;;;;;;5026902;28;20030;-68
2022/12/09 03:31:27;;;;;;;12.35;3.33;;;26.10;67.00;;;;;;5023941;28;20531;-67
2022/12/09 03:34:00;;;;;;;14.15;3.78;;;26.10;66.90;;;;;;5027873;28;20050;-69
2022/12/09 03:36:31;;;;;;;10.52;4.35;;;26.10;67.10;;;;;;5026918;28;20041;-70
2022/12/09 03:39:00;;;;;;;12.15;3.22;;;26.10;67.20;;;;;;5029606;28;20022;-69
2022/12/09 03:41:32;;;;;;;12.65;3.45;;;26.10;67.20;;;;;;5025646;28;20037;-69
2022/12/09 03:44:16;;;;;;;11.15;4.07;;;26.00;67.30;;;;;;5027808;28;20087;-68
2022/12/09 03:46:43;;;;;;;11.40;3.80;;;26.00;67.30;;;;;;5027743;28;20049;-68
2022/12/09 03:49:10;;;;;;;18.63;4.70;;;26.00;67.40;;;;;;5025545;28;20108;-69
2022/12/09 03:51:44;;;;;;;14.30;5.30;;;26.00;67.40;;;;;;5028076;28;20124;-68
2022/12/09 03:54:40;;;;;;;19.23;9.80;;;26.00;67.60;;;;;;5018623;28;20141;-72
2022/12/09 03:57:46;;;;;;;21.05;7.97;;;26.00;67.80;;;;;;5021354;28;20045;-71
2022/12/09 04:00:52;;;;;;;13.27;6.72;;;26.00;67.70;;;;;;5024662;28;20052;-69
2022/12/09 14:19:52;;;;;;;10.90;4.60;;;29.00;59.60;;;;;;5081450;27;20438;-68
2022/12/09 14:22:19;;;;;;;16.50;4.13;;;29.20;60.10;;;;;;5074575;28;20048;-68
2022/12/09 14:25:18;;;;;;;15.23;3.97;;;29.30;59.90;;;;;;5070632;28;20028;-68
2022/12/09 14:28:10;;;;;;;17.65;5.40;;;29.30;60.00;;;;;;5075463;28;20040;-69
2022/12/09 14:30:57;;;;;;;12.90;3.40;;;29.40;60.20;;;;;;5075526;28;20040;-68
2022/12/09 14:33:45;;;;;;;16.95;7.47;;;29.40;60.10;;;;;;5075103;28;20368;-68
2022/12/09 14:36:15;;;;;;;21.13;6.60;;;29.40;60.10;;;;;;5077862;28;20051;-67
2022/12/09 14:38:56;;;;;;;16.98;4.97;;;29.40;60.20;;;;;;5079886;28;20074;-66
2022/12/09 14:41:36;;;;;;;15.00;4.20;;;29.30;60.60;;;;;;5074876;28;20017;-66
2022/12/09 14:44:38;;;;;;;21.33;5.30;;;29.30;60.70;;;;;;5079967;28;20020;-70
2022/12/09 14:47:31;;;;;;;9.65;3.97;;;29.30;60.50;;;;;;5075828;28;20036;-68
2022/12/09 14:50:17;;;;;;;16.40;4.30;;;29.30;60.30;;;;;;5080919;28;20103;-69
2022/12/09 14:52:59;;;;;;;17.17;4.88;;;29.30;60.30;;;;;;5081563;28;20115;-68
2022/12/09 14:55:28;;;;;;;8.98;3.42;;;29.30;60.40;;;;;;5082178;28;20475;-68
2022/12/09 14:57:57;;;;;;;24.73;8.43;;;29.30;60.60;;;;;;5081921;28;20104;-69
2022/12/09 15:00:35;;;;;;;21.77;11.18;;;29.30;60.60;;;;;;5079086;28;20029;-68
2022/12/09 15:03:15;;;;;;;18.95;5.82;;;29.30;61.10;;;;;;5077638;28;20502;-68
2022/12/09 15:05:57;;;;;;;9.52;3.55;;;29.30;61.20;;;;;;5082143;28;20452;-70
2022/12/09 15:09:03;;;;;;;10.80;4.40;;;29.30;60.90;;;;;;5075407;28;20573;-68
2022/12/09 15:12:09;;;;;;;11.32;4.05;;;29.30;61.50;;;;;;5085201;28;20024;-69
2022/12/09 15:15:15;;;;;;;12.32;3.95;;;29.30;60.50;;;;;;5081800;28;20024;-68
2022/12/09 15:18:29;;;;;;;11.40;4.18;;;29.30;60.50;;;;;;5081348;28;20131;-68
2022/12/09 15:21:41;;;;;;;11.00;4.47;;;29.30;60.60;;;;;;5067767;28;20024;-70
2022/12/09 15:24:47;;;;;;;13.32;6.13;;;29.30;60.60;;;;;;5064756;28;20086;-69
2022/12/09 15:27:57;;;;;;;13.45;4.60;;;29.20;60.90;;;;;;5067261;28;20025;-70
2022/12/09 15:31:03;;;;;;;15.88;4.45;;;29.10;61.10;;;;;;5068115;28;20497;-70
2022/12/09 15:34:09;;;;;;;16.45;4.38;;;29.10;61.40;;;;;;5069200;28;20492;-67
2022/12/09 15:36:41;;;;;;;14.95;4.10;;;29.00;61.40;;;;;;5067753;28;20106;-70
2022/12/09 15:39:32;;;;;;;26.70;9.02;;;29.10;61.30;;;;;;5066040;28;20013;-68
2022/12/09 15:42:12;;;;;;;14.65;4.18;;;28.90;62.30;;;;;;5069412;28;20455;-68
2022/12/09 15:45:24;;;;;;;13.18;4.72;;;28.50;63.00;;;;;;5065120;28;20032;-67
2022/12/09 15:47:51;;;;;;;16.30;5.63;;;28.30;64.40;;;;;;5054750;28;20033;-67
2022/12/09 15:50:23;;;;;;;20.05;12.80;;;28.20;64.90;;;;;;5061678;28;20033;-68
2022/12/09 15:53:02;;;;;;;20.08;8.07;;;28.20;64.80;;;;;;5066850;28;20107;-69
2022/12/09 15:55:54;;;;;;;14.20;4.70;;;28.20;64.20;;;;;;5067789;28;20511;-69
2022/12/09 15:59:03;;;;;;;9.32;3.65;;;28.30;64.20;;;;;;5063114;28;20108;-69
2022/12/09 16:02:09;;;;;;;17.77;5.90;;;28.40;63.90;;;;;;5065927;28;20406;-69
2022/12/09 16:05:15;;;;;;;15.60;4.72;;;28.40;63.50;;;;;;5064905;28;20031;-68
2022/12/09 16:08:34;;;;;;;11.52;3.50;;;28.50;63.20;;;;;;5067767;28;20040;-68
2022/12/09 16:11:35;;;;;;;12.98;4.65;;;28.50;63.20;;;;;;5067663;28;20025;-67
2022/12/09 16:14:41;;;;;;;16.15;3.75;;;28.50;63.20;;;;;;5064688;28;20028;-68
2022/12/09 16:17:51;;;;;;;18.92;4.95;;;28.50;63.20;;;;;;5062859;28;20053;-67
2022/12/09 16:21:22;;;;;;;21.58;12.40;;;28.50;63.20;;;;;;5059156;28;20071;-70
2022/12/09 16:24:31;;;;;;;15.77;9.75;;;28.50;63.10;;;;;;5059107;28;20044;-69
2022/12/09 16:27:38;;;;;;;11.88;4.10;;;28.50;63.10;;;;;;5059442;28;20123;-68
2022/12/09 16:30:51;;;;;;;12.18;4.78;;;28.50;63.00;;;;;;5063438;28;20019;-70
2022/12/09 16:34:00;;;;;;;14.95;4.78;;;28.50;63.10;;;;;;5058182;28;20052;-69
2022/12/09 16:37:12;;;;;;;14.07;4.20;;;28.40;63.20;;;;;;5062023;28;20059;-68
2022/12/09 16:40:18;;;;;;;14.52;5.28;;;28.40;63.40;;;;;;5056159;28;20053;-67
2022/12/09 16:42:45;;;;;;;14.95;4.68;;;28.30;63.50;;;;;;5057232;28;20029;-69
2022/12/09 16:45:31;;;;;;;14.80;4.78;;;28.20;63.70;;;;;;5063581;28;20025;-67
2022/12/09 16:47:59;;;;;;;15.20;4.30;;;28.20;64.00;;;;;;5059820;28;20409;-67
2022/12/09 16:50:34;;;;;;;24.15;6.78;;;28.10;64.10;;;;;;5062299;28;20020;-68
2022/12/09 16:53:04;;;;;;;27.25;15.77;;;28.10;64.40;;;;;;5061694;28;20078;-67
2022/12/09 16:55:31;;;;;;;19.30;10.10;;;28.10;64.80;;;;;;5056307;28;20055;-68
2022/12/09 16:57:59;;;;;;;14.20;5.65;;;28.00;65.00;;;;;;5059062;28;20024;-70
2022/12/09 17:00:26;;;;;;;14.68;5.63;;;28.00;65.20;;;;;;5059829;28;20013;-68
2022/12/09 17:03:08;;;;;;;16.17;4.70;;;28.00;65.20;;;;;;5061469;28;20381;-69
2022/12/09 17:05:34;;;;;;;15.60;5.00;;;28.00;65.10;;;;;;5063939;28;20066;-70
2022/12/09 17:08:01;;;;;;;15.88;5.15;;;28.00;65.10;;;;;;5062361;28;20064;-68
2022/12/09 17:10:27;;;;;;;15.00;4.80;;;28.00;65.10;;;;;;5060044;28;20048;-68
2022/12/09 17:12:54;;;;;;;19.13;9.88;;;28.00;65.20;;;;;;5063618;28;20079;-68
2022/12/09 17:15:20;;;;;;;53.15;37.65;;;27.90;65.20;;;;;;5061672;28;20047;-67
2022/12/09 17:17:47;;;;;;;27.50;14.02;;;28.00;65.60;;;;;;5060256;28;20490;-69
2022/12/09 17:20:15;;;;;;;23.55;10.55;;;27.90;65.90;;;;;;5061336;28;20483;-68
2022/12/09 17:22:41;;;;;;;18.17;5.03;;;27.90;65.80;;;;;;5063863;28;20041;-69
2022/12/09 17:25:09;;;;;;;13.40;5.15;;;27.90;65.70;;;;;;5060972;28;20063;-68
2022/12/09 17:27:35;;;;;;;22.10;5.30;;;27.80;65.70;;;;;;5063457;28;20456;-68
2022/12/09 17:30:03;;;;;;;17.77;5.88;;;27.80;65.80;;;;;;5065333;28;20103;-68
2022/12/09 17:32:29;;;;;;;14.68;4.20;;;27.70;65.80;;;;;;5057383;28;20536;-67
2022/12/09 17:34:56;;;;;;;13.88;5.40;;;27.80;65.90;;;;;;5059270;28;20515;-68
2022/12/09 17:37:22;;;;;;;17.27;5.38;;;27.80;65.90;;;;;;5056672;28;20029;-68
2022/12/09 17:39:49;;;;;;;21.75;6.32;;;27.70;65.80;;;;;;5060290;28;20036;-67
2022/12/09 17:42:16;;;;;;;17.02;4.38;;;27.80;65.90;;;;;;5062234;28;20105;-67
2022/12/09 17:44:42;;;;;;;17.83;5.80;;;27.80;65.80;;;;;;5060878;28;20017;-67
2022/12/09 17:47:09;;;;;;;16.50;6.88;;;27.80;65.70;;;;;;5059674;28;20069;-68
2022/12/09 17:49:35;;;;;;;28.05;15.73;;;27.80;65.80;;;;;;5059502;28;20070;-68
2022/12/09 17:52:02;;;;;;;20.13;13.15;;;27.70;65.70;;;;;;5063802;28;20035;-68
2022/12/09 17:54:29;;;;;;;18.83;8.73;;;27.70;65.50;;;;;;5061608;28;20019;-67
2022/12/09 17:56:55;;;;;;;16.38;6.35;;;27.80;65.50;;;;;;5063755;28;20020;-68
2022/12/09 17:59:22;;;;;;;14.43;5.68;;;27.70;65.50;;;;;;5063284;28;20021;-67
2022/12/09 18:01:48;;;;;;;19.20;6.65;;;27.70;65.50;;;;;;5060408;28;20069;-70
2022/12/09 18:04:15;;;;;;;12.48;5.20;;;27.70;65.50;;;;;;5061379;28;20025;-67
2022/12/09 18:06:44;;;;;;;19.05;5.22;;;27.70;65.90;;;;;;5061430;28;20025;-67
2022/12/09 18:09:17;;;;;;;15.13;5.63;;;27.70;65.80;;;;;;5059878;28;20095;-67
2022/12/09 18:11:44;;;;;;;12.80;4.45;;;27.70;65.80;;;;;;5060955;28;20071;-67
2022/12/09 18:14:10;;;;;;;23.63;5.93;;;27.60;65.80;;;;;;5062325;28;20040;-67
2022/12/09 18:16:37;;;;;;;14.82;5.80;;;27.60;65.80;;;;;;5057647;28;20021;-67
2022/12/09 18:19:14;;;;;;;12.52;4.35;;;27.70;65.90;;;;;;5060671;28;20404;-68
2022/12/09 18:21:40;;;;;;;15.38;4.40;;;27.60;65.90;;;;;;5062404;28;20029;-67
2022/12/09 18:24:08;;;;;;;31.75;17.67;;;27.60;66.00;;;;;;5057765;28;20025;-67
2022/12/09 18:26:34;;;;;;;42.92;29.33;;;27.60;66.10;;;;;;5065465;28;20028;-68
2022/12/09 18:29:01;;;;;;;28.40;19.13;;;27.60;66.00;;;;;;5060679;28;20048;-67
2022/12/09 18:31:28;;;;;;;22.23;13.43;;;27.60;66.00;;;;;;5061768;28;20017;-67
2022/12/09 18:33:54;;;;;;;15.30;7.95;;;27.60;66.00;;;;;;5061408;28;20047;-67
2022/12/09 18:36:26;;;;;;;17.77;6.80;;;27.60;65.90;;;;;;5057563;28;20048;-68
2022/12/09 18:38:53;;;;;;;21.58;5.25;;;27.60;65.80;;;;;;5064909;28;20038;-68
2022/12/09 18:41:23;;;;;;;23.83;7.40;;;27.60;65.90;;;;;;5064798;28;20553;-68
2022/12/09 18:43:52;;;;;;;13.55;5.20;;;27.60;66.10;;;;;;5061232;28;20016;-68
2022/12/09 18:46:29;;;;;;;17.80;6.57;;;27.60;66.20;;;;;;5061256;28;20031;-68
2022/12/09 18:49:03;;;;;;;27.95;16.98;;;27.60;66.20;;;;;;5060478;28;20098;-68
2022/12/09 18:51:30;;;;;;;36.92;23.15;;;27.60;66.30;;;;;;5065233;28;20041;-69
2022/12/09 18:53:57;;;;;;;26.20;15.77;;;27.60;66.50;;;;;;5062181;28;20024;-68
2022/12/09 18:56:25;;;;;;;17.83;10.55;;;27.50;66.50;;;;;;5061860;28;20082;-68
2022/12/09 18:58:51;;;;;;;21.55;7.25;;;27.50;66.70;;;;;;5062401;28;20505;-68
2022/12/09 19:01:27;;;;;;;22.17;5.97;;;27.50;67.00;;;;;;5067918;28;20096;-69
2022/12/09 19:03:56;;;;;;;19.25;6.53;;;27.50;67.10;;;;;;5065933;28;20098;-68
2022/12/09 19:06:28;;;;;;;18.92;10.52;;;27.40;67.20;;;;;;5065563;28;20440;-68
2022/12/09 19:08:58;;;;;;;30.63;20.05;;;27.40;67.40;;;;;;5066661;28;20040;-68
2022/12/09 19:11:26;;;;;;;36.55;22.20;;;27.40;67.60;;;;;;5063748;28;20100;-68
2022/12/09 19:13:54;;;;;;;25.80;18.58;;;27.40;67.70;;;;;;5063937;28;20104;-68
2022/12/09 19:16:22;;;;;;;20.85;9.25;;;27.40;67.90;;;;;;5062244;28;20021;-68
2022/12/09 19:18:49;;;;;;;12.95;6.05;;;27.40;68.00;;;;;;5064501;28;20462;-67
2022/12/09 19:21:18;;;;;;;17.70;6.78;;;27.40;68.00;;;;;;5064355;28;20380;-67
2022/12/09 19:23:46;;;;;;;16.92;5.35;;;27.30;67.90;;;;;;5060951;28;20553;-68
2022/12/09 19:26:21;;;;;;;12.75;3.97;;;27.30;67.80;;;;;;5066483;28;20037;-68
2022/12/09 19:28:53;;;;;;;21.80;4.35;;;27.40;67.70;;;;;;5062500;28;20032;-68
2022/12/09 19:31:25;;;;;;;19.95;6.90;;;27.30;67.50;;;;;;5065504;28;20029;-68
2022/12/09 19:34:02;;;;;;;18.08;5.35;;;27.30;67.50;;;;;;5059779;28;20028;-68
2022/12/09 19:36:33;;;;;;;16.05;5.68;;;27.30;67.40;;;;;;5064719;28;20472;-68
2022/12/09 19:39:00;;;;;;;21.35;5.93;;;27.40;67.40;;;;;;5063183;28;20021;-68
2022/12/09 19:41:27;;;;;;;17.52;6.05;;;27.30;67.30;;;;;;5060798;28;20025;-68
2022/12/09 19:43:58;;;;;;;24.67;5.95;;;27.30;67.30;;;;;;5064428;28;20553;-67
2022/12/09 19:46:26;;;;;;;12.88;5.03;;;27.30;67.30;;;;;;5066050;28;20032;-67
2022/12/09 19:48:54;;;;;;;16.35;4.43;;;27.30;67.20;;;;;;5065421;28;20029;-67
2022/12/09 19:51:22;;;;;;;16.23;5.45;;;27.30;67.10;;;;;;5062257;28;20501;-67
2022/12/09 19:53:52;;;;;;;14.73;6.13;;;27.30;67.10;;;;;;5062424;28;20066;-68
2022/12/09 19:56:19;;;;;;;19.38;5.90;;;27.30;67.10;;;;;;5069539;28;20085;-67
2022/12/09 19:58:46;;;;;;;18.42;6.75;;;27.30;67.20;;;;;;5066406;28;20570;-69
2022/12/09 20:01:16;;;;;;;17.75;5.18;;;27.30;67.10;;;;;;5069348;28;20033;-71
2022/12/09 20:03:45;;;;;;;21.42;5.40;;;27.30;67.20;;;;;;5063170;28;20048;-67
2022/12/09 20:06:14;;;;;;;14.30;6.65;;;27.30;67.20;;;;;;5064806;28;20082;-67
2022/12/09 20:08:42;;;;;;;14.80;6.13;;;27.30;67.20;;;;;;5063256;28;20475;-67
2022/12/09 20:11:29;;;;;;;23.70;8.68;;;27.30;67.20;;;;;;5063957;28;20025;-68
